Time;durP1;ratioP1;P1;durP2;ratioP2;P2;SDS_P1;SDS_P2;PMS_P1;PMS_P2;Temp;Humidity;BMP_temperature;BMP_pressure;BME280_temperature;BME280_humidity;BME280_pressure;Samples;Min_cycle;Max_cycle;Signal;HPM_P1;HPM_P2
2022/07/04 00:02:04;;;;;;;0.60;0.60;;;15.90;99.90;16.70;101881.00;;;;5074215;28;20196;-67
2022/07/04 00:04:55;;;;;;;0.50;0.50;;;15.80;99.90;17.10;101877.00;;;;5074160;28;20172;-67
2022/07/04 00:07:43;;;;;;;0.60;0.60;;;16.00;99.90;17.00;101883.00;;;;5073974;28;20279;-67
2022/07/04 00:10:47;;;;;;;0.60;0.60;;;16.10;99.90;17.20;101847.00;;;;5075495;28;20187;-68
2022/07/04 00:13:47;;;;;;;0.60;0.60;;;16.20;99.90;17.10;101869.00;;;;5074081;28;20184;-68
2022/07/04 00:16:31;;;;;;;0.50;0.50;;;16.20;99.90;16.90;101864.00;;;;5074154;28;20231;-68
2022/07/04 00:19:17;;;;;;;0.60;0.60;;;16.00;99.90;16.80;101852.00;;;;5073885;28;20187;-68
2022/07/04 00:22:18;;;;;;;0.60;0.60;;;15.90;99.90;16.70;101862.00;;;;5073242;28;20200;-67
2022/07/04 00:25:03;;;;;;;0.70;0.70;;;15.90;99.90;16.70;101853.00;;;;5073689;28;20180;-68
2022/07/04 00:27:54;;;;;;;0.50;0.50;;;15.80;99.90;16.90;101851.00;;;;5074830;28;20185;-68
2022/07/04 00:30:46;;;;;;;0.50;0.50;;;15.90;99.90;17.00;101856.00;;;;5074839;28;20242;-68
2022/07/04 00:41:05;;;;;;;2.83;0.73;;;15.60;99.90;16.40;101824.00;;;;5074918;28;20554;-67
2022/07/04 00:44:05;;;;;;;0.30;0.30;;;15.70;99.90;16.50;101844.00;;;;5073704;28;20295;-67
2022/07/04 00:47:06;;;;;;;0.40;0.40;;;15.80;99.90;17.50;101843.00;;;;5074844;28;20247;-67
2022/07/04 00:49:59;;;;;;;0.40;0.40;;;16.30;99.90;17.30;101839.00;;;;5073427;28;20201;-67
2022/07/04 00:52:33;;;;;;;0.40;0.40;;;16.40;99.90;17.30;101832.00;;;;5057087;28;20208;-67
2022/07/04 00:55:33;;;;;;;0.40;0.40;;;16.40;99.90;17.10;101837.00;;;;5072647;28;20212;-67
2022/07/04 00:58:21;;;;;;;0.40;0.40;;;16.30;99.90;17.20;101838.00;;;;5073358;28;20249;-67
2022/07/04 01:01:24;;;;;;;0.30;0.30;;;16.30;99.90;17.70;101839.00;;;;5073219;28;20179;-67
2022/07/04 01:04:25;;;;;;;0.40;0.40;;;16.50;99.90;17.50;101829.00;;;;5073246;28;20259;-67
2022/07/04 01:07:14;;;;;;;0.30;0.30;;;16.60;99.90;16.50;101827.00;;;;5056764;28;20177;-67
2022/07/04 01:10:06;;;;;;;0.30;0.30;;;16.10;99.90;16.60;101830.00;;;;5072798;28;20177;-67
2022/07/04 01:12:54;;;;;;;0.67;0.67;;;16.10;99.90;16.00;101828.00;;;;5074084;28;20195;-67
2022/07/04 01:15:57;;;;;;;0.63;0.60;;;15.90;99.90;16.10;101835.00;;;;5074540;28;20166;-67
2022/07/04 01:18:59;;;;;;;0.30;0.30;;;15.80;99.90;15.70;101833.00;;;;5060551;28;20640;-67
2022/07/04 01:21:42;;;;;;;0.30;0.30;;;15.50;99.90;16.20;101823.00;;;;5073013;28;20313;-67
2022/07/04 01:24:28;;;;;;;0.37;0.37;;;15.60;99.90;16.20;101813.00;;;;5056549;28;20173;-67
2022/07/04 01:27:14;;;;;;;0.30;0.30;;;15.70;99.90;17.00;101821.00;;;;5056579;28;20192;-67
2022/07/04 01:30:16;;;;;;;0.43;0.43;;;15.90;99.90;15.80;101805.00;;;;5055892;28;20179;-67
2022/07/04 01:32:59;;;;;;;1.33;1.23;;;15.70;99.90;15.70;101815.00;;;;5055697;28;20301;-66
2022/07/04 01:35:45;;;;;;;0.30;0.30;;;15.50;99.90;16.60;101818.00;;;;5074029;28;20179;-66
2022/07/04 01:38:31;;;;;;;0.40;0.40;;;15.70;99.90;16.80;101814.00;;;;5056488;28;20186;-66
2022/07/04 01:41:16;;;;;;;0.33;0.33;;;16.00;99.90;17.30;101788.00;;;;5055614;28;20181;-66
2022/07/04 01:44:00;;;;;;;0.30;0.30;;;16.20;99.90;17.00;101815.00;;;;5072678;28;20565;-66
2022/07/04 01:46:56;;;;;;;0.30;0.30;;;16.30;99.90;17.00;101804.00;;;;5073671;28;20180;-66
2022/07/04 01:49:41;;;;;;;0.30;0.30;;;16.20;99.90;16.60;101808.00;;;;5072415;28;20547;-66
2022/07/04 01:52:45;;;;;;;0.30;0.30;;;16.10;99.90;17.00;101809.00;;;;5073738;28;20193;-66
2022/07/04 01:55:34;;;;;;;0.30;0.30;;;15.90;99.90;16.60;101763.00;;;;5072214;28;20177;-66
2022/07/04 01:58:05;;;;;;;0.30;0.30;;;16.00;99.90;16.20;101807.00;;;;5058807;28;20191;-66
2022/07/04 02:04:07;;;;;;;0.30;0.30;;;15.70;99.90;15.70;101806.00;;;;5073418;28;20192;-66
2022/07/04 02:06:56;;;;;;;1.37;1.27;;;15.30;99.90;16.00;101803.00;;;;5072069;28;20225;-66
2022/07/04 02:09:42;;;;;;;0.30;0.30;;;15.50;99.90;15.90;101808.00;;;;5040335;28;20180;-66
2022/07/04 02:15:35;;;;;;;0.40;0.40;;;15.60;99.90;16.00;101797.00;;;;5072546;28;20536;-66
2022/07/04 02:18:26;;;;;;;0.40;0.40;;;15.50;99.90;16.50;101783.00;;;;5072262;28;20585;-66
2022/07/04 02:21:10;;;;;;;0.40;0.40;;;15.50;99.90;16.40;101797.00;;;;5071858;28;20211;-66
2022/07/04 02:23:43;;;;;;;0.30;0.30;;;15.50;99.90;15.60;101795.00;;;;5071776;28;20183;-66
2022/07/04 02:26:29;;;;;;;0.37;0.37;;;15.30;99.90;15.90;101797.00;;;;5071905;28;20169;-66
2022/07/04 02:29:48;;;;;;;0.40;0.40;;;15.30;99.90;16.50;101812.00;;;;5072038;28;20224;-66
2022/07/04 02:32:31;;;;;;;0.30;0.30;;;15.40;99.90;15.50;101805.00;;;;5055026;28;20217;-66
2022/07/04 02:35:21;;;;;;;0.30;0.30;;;15.20;99.90;16.30;101815.00;;;;5055778;28;20224;-66
2022/07/04 02:38:25;;;;;;;0.30;0.30;;;15.30;99.90;15.60;101790.00;;;;5071674;28;20215;-66
2022/07/04 02:41:08;;;;;;;0.33;0.33;;;15.20;99.90;16.10;101814.00;;;;5073152;28;20266;-66
2022/07/04 02:43:52;;;;;;;0.53;0.53;;;15.40;99.90;16.10;101813.00;;;;5055151;28;20191;-66
2022/07/04 02:46:42;;;;;;;0.47;0.47;;;15.40;99.90;16.50;101813.00;;;;5055274;28;20233;-66
2022/07/04 02:49:30;;;;;;;0.40;0.40;;;15.40;99.90;16.30;101819.00;;;;5055345;28;20211;-66
2022/07/04 02:52:16;;;;;;;0.40;0.40;;;15.50;99.90;16.00;101816.00;;;;5055010;28;20551;-66
2022/07/04 02:55:02;;;;;;;0.40;0.40;;;15.50;99.90;15.70;101814.00;;;;5073058;28;20272;-66
2022/07/04 02:57:48;;;;;;;0.63;0.63;;;15.30;99.90;16.00;101819.00;;;;5071885;28;20199;-66
2022/07/04 03:00:55;;;;;;;0.40;0.40;;;15.20;99.90;15.40;101823.00;;;;5073059;28;20632;-66
2022/07/04 03:03:41;;;;;;;0.40;0.40;;;15.00;99.90;15.10;101793.00;;;;5056524;28;20265;-66
2022/07/04 03:06:25;;;;;;;0.40;0.40;;;14.80;99.90;15.00;101827.00;;;;5072122;28;20194;-66
2022/07/04 03:09:09;;;;;;;0.40;0.40;;;14.60;99.90;15.20;101841.00;;;;5071848;28;20264;-66
2022/07/04 03:12:10;;;;;;;0.40;0.40;;;14.60;99.90;15.30;101839.00;;;;5071469;28;20264;-66
2022/07/04 03:14:58;;;;;;;0.40;0.40;;;14.70;99.90;15.40;101837.00;;;;5071984;28;20178;-66
2022/07/04 03:17:54;;;;;;;0.40;0.40;;;14.70;99.90;15.10;101844.00;;;;5055229;28;20199;-66
2022/07/04 03:20:47;;;;;;;1.67;1.17;;;14.60;99.90;14.50;101855.00;;;;5061657;28;20183;-66
2022/07/04 03:23:34;;;;;;;0.40;0.40;;;14.50;99.90;15.20;101848.00;;;;5075324;28;20189;-66
2022/07/04 03:26:39;;;;;;;0.40;0.40;;;14.50;99.90;15.10;101860.00;;;;5075544;28;20182;-66
2022/07/04 03:29:40;;;;;;;0.40;0.40;;;14.80;99.90;15.20;101855.00;;;;5076267;28;20179;-66
2022/07/04 03:32:31;;;;;;;0.40;0.40;;;14.60;99.90;15.30;101873.00;;;;5058206;28;20222;-66
2022/07/04 03:34:59;;;;;;;0.40;0.40;;;14.60;99.90;15.80;101870.00;;;;5076601;28;20171;-66
2022/07/04 03:37:45;;;;;;;0.50;0.50;;;14.80;99.90;15.60;101854.00;;;;5075985;28;20177;-66
2022/07/04 03:40:32;;;;;;;0.40;0.40;;;14.90;99.90;15.90;101873.00;;;;5076237;28;20167;-66
2022/07/04 03:43:38;;;;;;;0.40;0.40;;;14.90;99.90;15.30;101869.00;;;;5075981;28;20238;-66
2022/07/04 03:46:29;;;;;;;0.50;0.50;;;14.90;99.90;15.80;101876.00;;;;5046254;28;20645;-66
2022/07/04 03:49:13;;;;;;;0.40;0.40;;;14.90;99.90;15.30;101872.00;;;;5074779;28;20184;-67
2022/07/04 03:52:14;;;;;;;0.40;0.40;;;14.90;99.90;15.10;101869.00;;;;5074687;28;20280;-66
2022/07/04 03:54:48;;;;;;;0.30;0.30;;;14.70;99.90;14.90;101865.00;;;;5074797;28;20183;-66
2022/07/04 03:57:28;;;;;;;0.40;0.40;;;14.50;99.90;14.60;101870.00;;;;5075815;28;20222;-66
2022/07/04 04:00:13;;;;;;;0.40;0.40;;;14.30;99.90;14.50;101874.00;;;;5074809;28;20184;-66
2022/07/04 04:05:26;;;;;;;0.40;0.40;;;14.20;99.90;14.20;101865.00;;;;5057633;28;20564;-66
2022/07/04 04:06:07;;;;;;;0.30;0.30;;;14.00;99.90;14.40;101841.00;;;;5074269;28;20191;-66
2022/07/04 04:09:13;;;;;;;0.33;0.33;;;13.90;99.90;14.60;101886.00;;;;5074834;28;20189;-66
2022/07/04 04:12:02;;;;;;;0.30;0.30;;;13.90;99.90;14.90;101882.00;;;;5075556;28;20255;-66
2022/07/04 04:14:54;;;;;;;0.30;0.30;;;14.10;99.90;14.60;101891.00;;;;5074590;28;20642;-66
2022/07/04 04:17:55;;;;;;;0.40;0.40;;;14.20;99.90;14.60;101894.00;;;;5074467;28;20262;-66
2022/07/04 04:20:59;;;;;;;0.60;0.60;;;14.20;99.90;14.30;101863.00;;;;5057152;28;20287;-66
2022/07/04 04:23:45;;;;;;;0.90;0.90;;;14.10;99.90;14.50;101886.00;;;;5044914;28;20189;-66
2022/07/04 04:26:27;;;;;;;0.50;0.50;;;14.10;99.90;14.60;101840.00;;;;5074624;28;20519;-66
2022/07/04 04:29:11;;;;;;;1.37;1.33;;;14.20;99.90;14.70;101886.00;;;;5073752;28;20247;-66
2022/07/04 04:32:05;;;;;;;0.40;0.40;;;14.20;99.90;14.90;101882.00;;;;5057509;28;20219;-66
2022/07/04 04:35:07;;;;;;;0.73;0.73;;;14.40;99.90;14.60;101892.00;;;;5057633;28;20636;-66
2022/07/04 04:37:53;;;;;;;0.50;0.50;;;14.40;99.90;15.00;101899.00;;;;5057480;28;20217;-66
2022/07/04 04:40:44;;;;;;;0.40;0.40;;;14.40;99.90;15.00;101890.00;;;;5075187;28;20176;-66
2022/07/04 04:43:29;;;;;;;0.30;0.30;;;14.50;99.90;15.00;101894.00;;;;5057007;28;20249;-66
2022/07/04 04:46:18;;;;;;;0.30;0.30;;;14.50;99.90;15.60;101878.00;;;;5073770;28;20643;-67
2022/07/04 04:49:02;;;;;;;0.30;0.30;;;14.80;99.90;15.40;101890.00;;;;5057225;28;20185;-67
2022/07/04 04:52:03;;;;;;;0.40;0.40;;;14.80;99.90;15.70;101885.00;;;;5073941;28;20193;-67
2022/07/04 04:55:04;;;;;;;0.30;0.30;;;15.20;99.90;16.10;101882.00;;;;5057075;28;20189;-67
2022/07/04 04:57:55;;;;;;;0.20;0.20;;;15.60;99.90;16.00;101843.00;;;;5073919;28;20554;-67
2022/07/04 05:00:56;;;;;;;0.53;0.53;;;15.50;99.90;17.10;101881.00;;;;5073733;28;20188;-67
2022/07/04 05:03:43;;;;;;;0.20;0.20;;;15.80;99.90;16.90;101882.00;;;;5074577;28;20320;-67
2022/07/04 05:06:29;;;;;;;0.20;0.20;;;16.40;99.90;17.00;101882.00;;;;5073576;28;20172;-67
2022/07/04 05:09:20;;;;;;;0.20;0.20;;;16.30;99.90;17.10;101861.00;;;;5073756;28;20261;-67
2022/07/04 05:12:07;;;;;;;0.40;0.40;;;16.60;99.90;17.60;101872.00;;;;5056725;28;20209;-67
2022/07/04 05:15:02;;;;;;;8.03;2.27;;;17.10;99.90;18.70;101876.00;;;;5073083;28;20178;-67
2022/07/04 05:17:53;;;;;;;0.20;0.20;;;17.40;99.90;17.70;101875.00;;;;5072948;28;20183;-67
2022/07/04 05:20:54;;;;;;;0.43;0.43;;;17.30;99.90;17.50;101869.00;;;;5056899;28;20634;-67
2022/07/04 05:23:38;;;;;;;0.37;0.37;;;17.30;99.90;16.90;101844.00;;;;5073261;28;20279;-68
2022/07/04 05:26:35;;;;;;;0.63;0.63;;;17.10;99.90;15.80;101880.00;;;;5074131;28;20192;-67
2022/07/04 05:29:39;;;;;;;1.23;1.23;;;16.20;99.90;16.00;101894.00;;;;5073116;28;20271;-67
2022/07/04 05:32:41;;;;;;;1.20;1.13;;;16.00;99.90;16.60;101870.00;;;;5072389;28;20293;-67
2022/07/04 05:35:52;;;;;;;5.07;1.03;;;16.00;99.90;16.10;101903.00;;;;5072933;28;20239;-67
2022/07/04 05:38:56;;;;;;;0.50;0.50;;;16.10;99.90;15.40;101909.00;;;;5056156;28;20174;-67
2022/07/04 05:41:47;;;;;;;0.30;0.30;;;15.50;99.90;15.30;101920.00;;;;5057062;28;20176;-67
2022/07/04 05:44:58;;;;;;;2.53;1.13;;;15.20;99.90;15.90;101917.00;;;;5072695;28;20269;-67
2022/07/04 05:47:59;;;;;;;1.27;1.27;;;15.40;99.90;15.90;101915.00;;;;5056342;28;20185;-67
2022/07/04 05:51:06;;;;;;;5.00;3.53;;;15.60;99.90;16.00;101909.00;;;;5055946;28;20185;-67
2022/07/04 05:53:52;;;;;;;0.30;0.30;;;15.80;99.90;15.90;101914.00;;;;5072578;28;20186;-67
2022/07/04 05:56:39;;;;;;;3.53;2.30;;;15.80;99.90;15.70;101913.00;;;;5072566;28;20175;-67
2022/07/04 05:59:40;;;;;;;2.57;2.37;;;15.60;99.90;16.40;101915.00;;;;5072467;28;20178;-67
2022/07/04 06:02:31;;;;;;;0.37;0.37;;;15.70;99.90;17.90;101924.00;;;;5072036;28;20250;-67
2022/07/04 06:05:24;;;;;;;4.87;3.23;;;16.80;99.90;18.20;101886.00;;;;5073276;28;20581;-68
2022/07/04 06:08:35;;;;;;;0.30;0.30;;;17.40;99.90;17.90;101922.00;;;;5072664;28;20184;-68
2022/07/04 06:11:19;;;;;;;9.77;3.77;;;17.00;99.90;18.00;101918.00;;;;5062877;28;20216;-67
2022/07/04 06:14:07;;;;;;;0.43;0.43;;;17.40;99.90;17.70;101918.00;;;;5072416;28;20218;-67
2022/07/04 06:17:14;;;;;;;5.10;3.03;;;17.20;99.90;17.30;101903.00;;;;5072066;28;20258;-67
2022/07/04 06:20:15;;;;;;;1.03;1.00;;;17.10;99.90;16.50;101927.00;;;;5055932;28;20290;-67
2022/07/04 06:23:16;;;;;;;0.83;0.83;;;16.50;99.90;16.60;101918.00;;;;5072393;28;20279;-67
2022/07/04 06:26:11;;;;;;;2.00;1.90;;;16.40;99.90;16.40;101926.00;;;;5071983;28;20232;-67
2022/07/04 06:28:54;;;;;;;0.30;0.30;;;16.30;99.90;17.00;101910.00;;;;5072157;28;20255;-67
2022/07/04 06:31:38;;;;;;;2.30;0.80;;;16.30;99.90;17.60;101912.00;;;;5071510;28;20303;-67
2022/07/04 06:37:28;;;;;;;0.90;0.90;;;17.10;99.90;17.40;101902.00;;;;5072314;28;20265;-67
2022/07/04 06:40:13;;;;;;;4.43;0.40;;;17.10;99.90;17.10;101905.00;;;;5055801;28;20183;-67
2022/07/04 06:43:14;;;;;;;3.03;1.47;;;16.90;99.90;17.70;101914.00;;;;5055625;28;20190;-67
2022/07/04 06:46:16;;;;;;;1.70;1.37;;;17.00;99.90;18.00;101870.00;;;;5073552;28;20189;-68
2022/07/04 06:49:02;;;;;;;1.93;1.20;;;17.20;99.90;17.50;101907.00;;;;5072144;28;20216;-67
2022/07/04 06:51:48;;;;;;;0.37;0.37;;;17.30;99.90;17.50;101919.00;;;;5056936;28;20200;-67
2022/07/04 06:54:34;;;;;;;1.00;0.97;;;17.00;99.90;17.40;101916.00;;;;5074598;28;20547;-67
2022/07/04 06:57:35;;;;;;;1.67;0.63;;;17.20;99.90;17.00;101927.00;;;;5077174;28;20219;-67
2022/07/04 07:00:33;;;;;;;0.33;0.33;;;16.90;99.90;17.80;101928.00;;;;5075717;28;20226;-67
2022/07/04 07:03:37;;;;;;;1.13;0.63;;;17.10;99.90;18.20;101923.00;;;;5075890;28;20192;-67
2022/07/04 07:06:27;;;;;;;0.60;0.60;;;17.50;99.90;18.10;101913.00;;;;5060352;28;20192;-67
2022/07/04 07:09:16;;;;;;;0.30;0.30;;;17.70;99.90;20.10;101916.00;;;;5075918;28;20202;-67
2022/07/04 07:12:22;;;;;;;0.73;0.73;;;18.60;99.90;20.90;101897.00;;;;5075407;28;20204;-68
2022/07/04 07:15:26;;;;;;;0.73;0.73;;;19.50;99.90;20.60;101875.00;;;;5058894;28;20549;-68
2022/07/04 07:18:12;;;;;;;0.98;0.95;;;19.80;99.90;20.50;101879.00;;;;5075657;28;20212;-67
2022/07/04 07:21:15;;;;;;;0.30;0.30;;;19.80;99.90;22.70;101894.00;;;;5075741;28;20179;-68
2022/07/04 07:24:19;;;;;;;3.45;2.30;;;21.00;99.90;18.10;101878.00;;;;5076397;28;20223;-67
2022/07/04 07:27:08;;;;;;;2.85;2.13;;;19.10;99.90;19.30;101894.00;;;;5062553;28;20181;-67
2022/07/04 07:29:59;;;;;;;0.85;0.85;;;19.10;99.90;18.20;101894.00;;;;5058809;28;20338;-67
2022/07/04 07:33:00;;;;;;;0.80;0.80;;;18.20;99.90;21.20;101911.00;;;;5074907;28;20266;-68
2022/07/04 07:36:04;;;;;;;16.00;5.85;;;19.70;99.90;21.00;101889.00;;;;5075121;28;20218;-68
2022/07/04 07:38:57;;;;;;;2.80;2.58;;;20.70;99.90;20.30;101876.00;;;;5074833;28;20204;-68
2022/07/04 07:41:58;;;;;;;0.30;0.30;;;20.50;99.90;24.80;101934.00;;;;5075497;28;20179;-68
2022/07/04 07:44:59;;;;;;;0.65;0.65;;;22.60;99.90;27.40;101979.00;;;;5074970;28;20612;-68
2022/07/04 07:48:03;;;;;;;0.15;0.15;;;25.60;99.90;23.00;101943.00;;;;5058176;28;20212;-68
2022/07/04 07:51:04;;;;;;;4.05;1.95;;;23.40;99.90;21.30;101910.00;;;;5074754;28;20183;-68
2022/07/04 07:54:17;;;;;;;0.90;0.90;;;21.20;99.90;20.50;101911.00;;;;5075352;28;20505;-68
2022/07/04 07:57:03;;;;;;;7.55;4.72;;;20.30;99.90;19.30;101889.00;;;;5069288;28;20670;-67
2022/07/04 08:00:25;;;;;;;1.80;1.55;;;19.70;99.90;20.80;101910.00;;;;5075090;28;20179;-68
2022/07/04 08:06:37;;;;;;;4.18;2.15;;;20.00;99.90;22.20;101892.00;;;;5075783;28;20553;-68
2022/07/04 08:09:38;;;;;;;5.40;2.20;;;21.00;99.90;22.10;101931.00;;;;5057762;28;20170;-68
2022/07/04 08:12:25;;;;;;;2.13;1.85;;;21.60;99.90;23.50;101946.00;;;;5057569;28;20215;-68
2022/07/04 08:15:30;;;;;;;0.55;0.55;;;22.50;99.90;24.00;101956.00;;;;5074031;28;20231;-66
2022/07/04 08:18:22;;;;;;;0.30;0.30;;;22.60;99.90;21.60;101938.00;;;;5059046;28;20197;-65
2022/07/04 08:21:23;;;;;;;0.10;0.10;;;22.20;99.90;24.50;101949.00;;;;5075709;28;20201;-66
2022/07/04 08:24:24;;;;;;;1.02;1.02;;;22.80;99.90;25.40;101999.00;;;;5075591;28;20176;-66
2022/07/04 08:27:22;;;;;;;0.20;0.20;;;23.70;99.90;24.20;101975.00;;;;5074240;28;20230;-66
2022/07/04 08:30:25;;;;;;;1.75;1.65;;;23.70;99.90;22.40;101959.00;;;;5074547;28;20636;-66
2022/07/04 08:33:29;;;;;;;3.97;3.20;;;22.90;99.90;22.20;101950.00;;;;5075610;28;20327;-68
2022/07/04 08:36:26;;;;;;;0.10;0.10;;;22.20;99.90;25.30;101991.00;;;;5044565;28;20262;-68
2022/07/04 08:39:30;;;;;;;2.42;2.20;;;23.50;99.90;23.80;102006.00;;;;5073593;28;20190;-68
2022/07/04 08:42:36;;;;;;;1.10;0.90;;;24.00;99.90;24.90;102005.00;;;;5058898;28;20268;-66
2022/07/04 08:45:17;;;;;;;0.30;0.30;;;23.90;99.90;25.00;101997.00;;;;5074056;28;20174;-68
2022/07/04 08:48:04;;;;;;;0.28;0.28;;;23.90;99.90;26.70;102011.00;;;;5057325;28;20177;-68
2022/07/04 08:51:19;;;;;;;0.10;0.10;;;25.10;99.90;26.30;102039.00;;;;5074865;28;20182;-68
2022/07/04 08:58:25;;;;;;;2.13;1.80;;;25.80;99.90;24.30;102040.00;;;;5073639;28;20530;-69
2022/07/04 09:00:46;;;;;;;0.40;0.40;;;23.80;99.90;25.90;102027.00;;;;5073507;28;20652;-66
2022/07/04 09:03:49;;;;;;;0.85;0.85;;;24.50;99.90;25.20;102005.00;;;;5073838;28;20646;-67
2022/07/04 09:06:36;;;;;;;5.05;2.75;;;24.20;99.90;27.10;102030.00;;;;5056743;28;20234;-69
2022/07/04 09:09:25;;;;;;;3.22;1.15;;;26.00;99.90;23.20;102010.00;;;;5073054;28;20182;-67
2022/07/04 09:12:11;;;;;;;1.00;0.95;;;24.20;99.90;25.10;102014.00;;;;5073839;28;20186;-67
2022/07/04 09:15:26;;;;;;;0.10;0.10;;;24.20;99.90;26.20;102037.00;;;;5056997;28;20192;-67
2022/07/04 09:22:14;;;;;;;1.38;1.27;;;25.00;99.90;25.50;102040.00;;;;5058801;28;20224;-67
2022/07/04 09:25:54;;;;;;;1.25;1.02;;;24.90;99.90;25.00;102019.00;;;;5072862;28;20198;-67
2022/07/04 09:28:58;;;;;;;1.02;1.00;;;24.40;99.90;26.60;102059.00;;;;5073141;28;20180;-67
2022/07/04 09:32:03;;;;;;;0.20;0.20;;;24.80;99.90;24.10;102026.00;;;;5073790;28;20187;-67
2022/07/04 09:35:17;;;;;;;1.08;1.02;;;24.20;99.90;25.30;102041.00;;;;5059535;28;20311;-67
2022/07/04 09:38:22;;;;;;;0.10;0.10;;;24.70;99.90;24.70;102037.00;;;;5055378;28;20193;-67
2022/07/04 09:41:26;;;;;;;1.63;1.40;;;24.60;99.90;24.70;102060.00;;;;5056091;28;20193;-69
2022/07/04 09:45:05;;;;;;;4.15;0.35;;;25.30;99.90;24.60;102053.00;;;;5073097;28;20177;-67
2022/07/04 09:48:16;;;;;;;0.20;0.20;;;24.80;99.90;28.00;102080.00;;;;5073124;28;20204;-67
2022/07/04 09:51:35;;;;;;;0.17;0.17;;;25.80;99.90;27.60;102080.00;;;;5072661;28;20181;-69
2022/07/04 09:54:31;;;;;;;1.08;1.08;;;26.10;99.90;29.10;102063.00;;;;5072384;28;20185;-67
2022/07/04 09:57:25;;;;;;;0.20;0.20;;;27.50;99.90;31.50;102086.00;;;;5065230;28;20205;-67
2022/07/04 10:00:26;;;;;;;1.85;1.70;;;29.50;99.90;32.80;102083.00;;;;5072629;28;20180;-68
2022/07/04 10:03:17;;;;;;;2.53;1.27;;;31.00;99.90;27.00;102073.00;;;;5059239;28;20215;-67
2022/07/04 10:06:23;;;;;;;3.03;1.77;;;28.10;99.90;24.80;102069.00;;;;5073509;28;20173;-67
2022/07/04 10:09:17;;;;;;;0.13;0.13;;;25.20;99.90;26.60;102071.00;;;;5071907;28;20184;-67
2022/07/04 10:12:01;;;;;;;4.63;1.02;;;25.30;99.90;24.10;102052.00;;;;5071990;28;20204;-67
2022/07/04 10:15:06;;;;;;;0.22;0.22;;;24.20;99.90;24.40;102038.00;;;;5071916;28;20271;-67
2022/07/04 10:18:09;;;;;;;1.65;1.55;;;23.30;99.90;24.70;102049.00;;;;5073178;28;20189;-67
2022/07/04 10:33:50;;;;;;;0.65;0.65;;;25.70;99.90;27.70;102080.00;;;;5070198;28;21101;-68
2022/07/04 10:36:35;;;;;;;1.38;0.93;;;26.80;99.90;27.90;102076.00;;;;5065601;28;20240;-68
2022/07/04 10:39:29;;;;;;;0.13;0.13;;;26.70;99.90;27.50;102082.00;;;;5049471;28;20273;-68
2022/07/04 10:42:25;;;;;;;0.10;0.10;;;26.90;99.90;25.90;102074.00;;;;5049161;28;20174;-68
2022/07/04 10:45:31;;;;;;;5.07;2.20;;;25.70;99.90;26.20;102078.00;;;;5066358;28;20257;-68
2022/07/04 10:48:24;;;;;;;0.10;0.10;;;25.00;99.90;26.50;102077.00;;;;5048741;28;20775;-68
2022/07/04 10:51:09;;;;;;;0.90;0.70;;;25.10;99.90;28.30;102084.00;;;;5065639;28;20261;-68
2022/07/04 10:53:59;;;;;;;0.77;0.77;;;26.60;99.90;30.80;102055.00;;;;5050504;28;20186;-68
2022/07/04 10:56:46;;;;;;;0.32;0.32;;;28.80;99.90;29.30;102072.00;;;;5049164;28;20293;-68
2022/07/04 10:59:35;;;;;;;4.35;0.95;;;29.00;99.90;26.70;102084.00;;;;5065695;28;20189;-68
2022/07/04 11:02:29;;;;;;;0.60;0.60;;;27.90;99.90;29.00;102062.00;;;;5048469;28;20202;-68
2022/07/04 11:05:03;;;;;;;0.10;0.10;;;27.70;99.90;30.30;102058.00;;;;5048843;28;20208;-68
2022/07/04 11:07:44;;;;;;;0.20;0.20;;;28.80;99.90;27.50;102068.00;;;;5050268;28;20190;-68
2022/07/04 11:18:52;;;;;;;0.20;0.20;;;27.00;99.90;28.90;102047.00;;;;5056386;28;20194;-69
2022/07/04 11:21:55;;;;;;;0.25;0.20;;;27.20;99.90;27.90;102050.00;;;;5064927;28;20189;-69
2022/07/04 11:25:05;;;;;;;0.30;0.30;;;28.60;99.90;29.30;102015.00;;;;5065434;28;20652;-69
2022/07/04 11:28:21;;;;;;;0.20;0.20;;;28.40;99.90;25.70;102040.00;;;;5064906;28;20178;-69
2022/07/04 11:31:47;;;;;;;0.30;0.30;;;27.40;99.90;28.00;102043.00;;;;5048205;28;20171;-69
2022/07/04 11:34:33;;;;;;;0.30;0.30;;;27.10;99.90;30.10;102024.00;;;;5049521;28;20186;-68
2022/07/04 11:37:50;;;;;;;0.93;0.47;;;28.90;99.90;27.10;102030.00;;;;5049692;28;20189;-68
2022/07/04 11:47:27;;;;;;;0.60;0.60;;;27.10;99.90;27.20;102029.00;;;;5036197;28;20174;-69
2022/07/04 11:50:14;;;;;;;0.20;0.20;;;27.30;99.90;27.90;102035.00;;;;5035721;28;20221;-68
2022/07/04 11:53:16;;;;;;;0.70;0.70;;;27.20;99.90;25.60;102045.00;;;;5051339;28;20272;-68
2022/07/04 11:56:39;;;;;;;0.10;0.10;;;26.20;99.90;26.50;102051.00;;;;5051560;28;20174;-68
2022/07/04 12:00:01;;;;;;;0.30;0.30;;;25.60;99.90;26.60;102039.00;;;;5035398;28;20187;-68
2022/07/04 12:02:48;;;;;;;0.10;0.10;;;25.70;99.90;27.70;102026.00;;;;5034360;28;20605;-68
2022/07/04 12:06:01;;;;;;;0.65;0.65;;;26.80;99.90;28.90;102021.00;;;;5051082;28;20781;-68
2022/07/04 12:09:04;;;;;;;6.55;0.98;;;27.60;99.90;30.50;101976.00;;;;5034759;28;20170;-69
2022/07/04 12:11:56;;;;;;;1.17;0.93;;;28.90;99.90;27.90;102013.00;;;;5051031;28;20207;-68
2022/07/04 12:14:59;;;;;;;0.73;0.73;;;27.50;99.90;26.20;102021.00;;;;5051427;28;20159;-68
2022/07/04 12:17:50;;;;;;;0.10;0.10;;;26.60;99.90;27.00;102002.00;;;;5033970;28;20557;-68
2022/07/04 12:20:52;;;;;;;0.47;0.47;;;26.30;99.90;26.50;102032.00;;;;5050879;28;20175;-68
2022/07/04 12:23:50;;;;;;;0.10;0.10;;;25.50;99.90;28.60;102033.00;;;;5034110;28;20636;-68
2022/07/04 12:26:48;;;;;;;0.25;0.25;;;26.70;99.90;29.20;102025.00;;;;5034255;28;20290;-68
2022/07/04 12:29:24;;;;;;;0.20;0.20;;;27.80;99.90;28.50;102019.00;;;;5033926;28;20270;-68
2022/07/04 12:32:19;;;;;;;0.70;0.70;;;27.90;99.90;28.10;102011.00;;;;5033433;28;20233;-68
2022/07/04 12:35:35;;;;;;;0.30;0.30;;;27.60;99.90;28.40;102029.00;;;;5050610;28;20186;-68
2022/07/04 12:41:31;;;;;;;0.20;0.20;;;27.60;99.90;27.90;102026.00;;;;5035402;28;20210;-68
2022/07/04 12:44:40;;;;;;;0.30;0.30;;;27.40;99.90;26.80;102021.00;;;;5050515;28;20582;-68
2022/07/04 12:47:26;;;;;;;0.52;0.52;;;26.40;99.90;27.40;102010.00;;;;5049597;28;20199;-68
2022/07/04 12:50:24;;;;;;;6.03;1.70;;;26.40;99.90;26.00;102015.00;;;;5034995;28;20217;-69
2022/07/04 12:53:44;;;;;;;0.85;0.85;;;25.80;99.90;26.30;101982.00;;;;5033574;28;20612;-68
2022/07/04 12:56:34;;;;;;;0.82;0.82;;;25.60;99.90;27.10;102020.00;;;;5034148;28;20206;-68
2022/07/04 12:59:35;;;;;;;0.10;0.10;;;25.70;99.90;25.80;101983.00;;;;5034698;28;20181;-68
2022/07/04 13:02:36;;;;;;;0.10;0.10;;;25.60;99.90;26.40;102010.00;;;;5050087;28;20244;-68
2022/07/04 13:05:30;;;;;;;1.52;1.42;;;25.40;99.90;26.50;102013.00;;;;5049919;28;20198;-68
2022/07/04 13:08:08;;;;;;;0.20;0.20;;;25.50;99.90;26.70;102013.00;;;;5050191;28;20714;-68
2022/07/04 13:14:28;;;;;;;0.45;0.40;;;25.60;99.90;25.80;102011.00;;;;5047359;28;20186;-68
2022/07/04 13:17:19;;;;;;;3.10;2.33;;;25.10;99.90;25.30;102014.00;;;;5049684;28;20183;-68
2022/07/04 13:20:22;;;;;;;0.15;0.15;;;24.90;99.90;25.70;102009.00;;;;5033010;28;20577;-68
2022/07/04 13:23:09;;;;;;;0.20;0.20;;;24.50;99.90;25.90;102011.00;;;;5049511;28;20190;-68
2022/07/04 13:26:10;;;;;;;0.45;0.45;;;24.70;99.90;27.10;102018.00;;;;5033837;28;20226;-68
2022/07/04 13:29:01;;;;;;;0.20;0.20;;;25.40;99.90;25.50;102003.00;;;;5049536;28;20660;-68
2022/07/04 13:32:03;;;;;;;0.10;0.10;;;25.00;99.90;26.90;102010.00;;;;5032955;28;20218;-68
2022/07/04 13:34:51;;;;;;;3.20;2.40;;;25.30;99.90;27.30;102006.00;;;;5034389;28;20190;-68
2022/07/04 13:37:59;;;;;;;0.10;0.10;;;26.20;99.90;26.90;102009.00;;;;5032932;28;20536;-68
2022/07/04 13:40:50;;;;;;;1.15;0.95;;;25.80;99.90;24.50;101993.00;;;;5048523;28;20433;-67
2022/07/04 13:43:51;;;;;;;0.17;0.17;;;24.80;99.90;26.30;102003.00;;;;5032794;28;20194;-67
2022/07/04 13:46:37;;;;;;;0.20;0.20;;;24.80;99.90;26.80;102007.00;;;;5048978;28;20203;-68
2022/07/04 13:49:28;;;;;;;0.20;0.20;;;25.30;99.90;26.50;102004.00;;;;5048959;28;20650;-68
2022/07/04 13:52:53;;;;;;;0.10;0.10;;;25.50;99.90;26.60;101997.00;;;;5033783;28;20206;-68